Terminal Aerodrome Forecast
Issued by NWS Wakefield, VA

Home | Current Version | Previous Version | Text Only | Print | Product List | Glossary On
Versions: 1 2 3 4 5 6 7 8 9 10 11 12 13 14 15 16
000
FTUS41 KAKQ 301720
TAFSBY
TAF
KSBY 301720Z 3018/3118 VRB04KT P6SM SCT050
     FM310000 00000KT P6SM SKC
      TEMPO 3107/3111 2SM BR
     FM311300 08005KT P6SM SCT030 SCT250=

USA.gov is the U.S. government's official web portal to all federal, state and local government web resources and services.